createdAt,value
2018-08-11T00:00:40.688Z,0.00
2018-08-11T00:01:40.691Z,0.00
2018-08-11T00:02:40.620Z,0.00
2018-08-11T00:03:40.597Z,0.00
2018-08-11T00:04:40.567Z,0.00
2018-08-11T00:05:40.540Z,0.00
2018-08-11T00:06:40.525Z,0.00
2018-08-11T00:07:40.506Z,0.00
2018-08-11T00:08:40.479Z,0.00
2018-08-11T00:09:40.450Z,0.00
2018-08-11T00:10:40.419Z,0.00
2018-08-11T00:11:40.388Z,0.00
2018-08-11T00:12:40.435Z,0.00
2018-08-11T00:13:40.340Z,0.00
2018-08-11T00:14:40.366Z,0.00
2018-08-11T00:15:40.334Z,0.00
2018-08-11T00:16:40.258Z,0.00
2018-08-11T00:17:40.237Z,0.00
2018-08-11T00:18:40.238Z,0.00
2018-08-11T00:19:40.190Z,0.00
2018-08-11T00:20:40.233Z,0.00
2018-08-11T00:21:40.136Z,0.00
2018-08-11T00:22:40.100Z,0.00
2018-08-11T00:23:40.087Z,0.00
2018-08-11T00:24:40.074Z,0.00
2018-08-11T00:25:40.031Z,0.00
2018-08-11T00:26:40.000Z,0.00
2018-08-11T00:27:39.992Z,0.00
2018-08-11T00:28:39.951Z,0.00
2018-08-11T00:29:39.926Z,0.00
2018-08-11T00:30:39.896Z,0.00
2018-08-11T00:31:39.870Z,0.00
2018-08-11T00:32:39.848Z,0.00
2018-08-11T00:33:39.826Z,0.00
2018-08-11T00:34:39.792Z,0.00
2018-08-11T00:35:39.767Z,0.00
2018-08-11T00:36:39.729Z,0.00
2018-08-11T00:37:39.711Z,0.00
2018-08-11T00:38:39.704Z,0.00
2018-08-11T00:39:39.663Z,0.00
2018-08-11T00:40:39.643Z,0.00
2018-08-11T00:41:39.622Z,0.00
2018-08-11T00:42:39.577Z,0.00
2018-08-11T00:43:39.545Z,0.00
2018-08-11T00:44:39.548Z,0.00
2018-08-11T00:45:39.502Z,0.00
2018-08-11T00:46:39.472Z,0.00
2018-08-11T00:47:57.186Z,0.00
2018-08-11T00:49:52.412Z,0.00
2018-08-11T00:50:52.411Z,0.00
2018-08-11T00:51:52.397Z,0.00
2018-08-11T00:52:52.253Z,0.00
2018-08-11T00:53:52.343Z,0.00
2018-08-11T00:54:52.198Z,0.00
2018-08-11T00:55:52.177Z,0.00
2018-08-11T00:56:52.146Z,0.00
2018-08-11T00:57:52.111Z,0.00
2018-08-11T00:58:52.083Z,0.00
2018-08-11T00:59:52.060Z,0.00
2018-08-11T01:00:52.035Z,0.00
2018-08-11T01:01:51.993Z,0.00
2018-08-11T01:02:52.000Z,0.00
2018-08-11T01:03:51.964Z,0.00
2018-08-11T01:04:51.917Z,0.00
2018-08-11T01:05:51.903Z,0.00
2018-08-11T01:06:51.908Z,0.00
2018-08-11T01:07:51.855Z,0.00
2018-08-11T01:08:51.813Z,0.00
2018-08-11T01:09:51.799Z,0.00
2018-08-11T01:10:51.780Z,0.00
2018-08-11T01:11:51.733Z,0.00
2018-08-11T01:12:51.707Z,0.00
2018-08-11T01:13:51.701Z,0.00
2018-08-11T01:14:51.648Z,0.00
2018-08-11T01:15:51.613Z,0.00
2018-08-11T01:16:51.600Z,0.00
2018-08-11T01:17:51.573Z,0.00
2018-08-11T01:18:51.533Z,0.00
2018-08-11T01:19:51.508Z,0.00
2018-08-11T01:20:51.494Z,0.00
2018-08-11T01:21:51.442Z,0.00
2018-08-11T01:22:51.522Z,0.00
2018-08-11T01:23:51.469Z,0.00
2018-08-11T01:24:51.375Z,0.00
2018-08-11T01:25:51.338Z,0.00
2018-08-11T01:26:51.313Z,0.00
2018-08-11T01:27:51.276Z,0.00
2018-08-11T01:28:51.255Z,0.00
2018-08-11T01:29:51.229Z,0.00
2018-08-11T01:30:51.253Z,0.00
2018-08-11T01:31:51.189Z,0.00
2018-08-11T01:32:51.134Z,0.00
2018-08-11T01:33:51.147Z,0.00
2018-08-11T01:34:51.082Z,0.00
2018-08-11T01:35:51.051Z,0.00
2018-08-11T01:36:51.088Z,0.00
2018-08-11T01:37:50.991Z,0.00
2018-08-11T01:38:51.083Z,0.00
2018-08-11T01:39:50.970Z,0.00
2018-08-11T01:40:50.914Z,0.00
2018-08-11T01:41:50.938Z,0.00
2018-08-11T01:42:50.859Z,0.00
2018-08-11T01:43:50.826Z,0.00
2018-08-11T01:44:50.798Z,0.00
2018-08-11T01:45:50.770Z,0.00
2018-08-11T01:46:50.854Z,0.00
2018-08-11T01:47:50.736Z,0.00
2018-08-11T01:48:50.772Z,0.00
2018-08-11T01:49:50.644Z,0.00
2018-08-11T01:50:50.698Z,0.00
2018-08-11T01:51:50.638Z,0.00
2018-08-11T01:52:50.606Z,0.00
2018-08-11T01:53:50.590Z,0.00
2018-08-11T01:54:50.510Z,0.00
2018-08-11T01:55:50.484Z,0.00
2018-08-11T01:56:50.458Z,0.00
2018-08-11T01:57:50.443Z,0.00
2018-08-11T01:58:50.389Z,0.00
2018-08-11T01:59:50.371Z,0.00
2018-08-11T02:00:50.415Z,0.00
2018-08-11T02:01:50.319Z,0.00
2018-08-11T02:02:50.314Z,0.00
2018-08-11T02:03:50.269Z,0.00
2018-08-11T02:04:50.308Z,0.00
2018-08-11T02:05:50.200Z,0.00
2018-08-11T02:06:50.179Z,0.00
2018-08-11T02:07:50.148Z,0.00
2018-08-11T02:08:50.108Z,0.00
2018-08-11T02:09:50.088Z,0.00
2018-08-11T02:10:50.051Z,0.00
2018-08-11T02:11:50.047Z,0.00
2018-08-11T02:12:50.023Z,0.00
2018-08-11T02:13:49.997Z,0.00
2018-08-11T02:14:49.937Z,0.00
2018-08-11T02:15:49.921Z,0.00
2018-08-11T02:16:49.897Z,0.00
2018-08-11T02:17:49.858Z,0.00
2018-08-11T02:18:49.830Z,0.00
2018-08-11T02:19:49.807Z,0.00
2018-08-11T02:20:49.772Z,0.00
2018-08-11T02:21:49.737Z,0.00
2018-08-11T02:22:49.729Z,0.00
2018-08-11T02:23:49.826Z,0.00
2018-08-11T02:24:49.740Z,0.00
2018-08-11T02:25:49.626Z,0.00
2018-08-11T02:26:49.599Z,0.00
2018-08-11T02:27:49.579Z,0.00
2018-08-11T02:28:49.561Z,0.00
2018-08-11T02:29:49.515Z,0.00
2018-08-11T02:30:49.486Z,0.00
2018-08-11T02:31:49.457Z,0.00
2018-08-11T02:32:49.429Z,0.00
2018-08-11T02:33:49.408Z,0.00
2018-08-11T02:34:49.369Z,0.00
2018-08-11T02:35:49.362Z,0.00
2018-08-11T02:36:49.317Z,0.00
2018-08-11T02:37:49.283Z,0.00
2018-08-11T02:38:49.269Z,0.00
2018-08-11T02:39:49.239Z,0.00
2018-08-11T02:40:49.196Z,0.00
2018-08-11T02:41:49.180Z,0.00
2018-08-11T02:42:49.141Z,0.00
2018-08-11T02:43:49.110Z,0.00
2018-08-11T02:44:49.100Z,0.00
2018-08-11T02:45:49.071Z,0.00
2018-08-11T02:46:49.042Z,0.00
2018-08-11T02:47:49.012Z,0.00
2018-08-11T02:48:49.042Z,0.00
2018-08-11T02:49:48.954Z,0.00
2018-08-11T02:50:48.914Z,0.00
2018-08-11T02:51:48.897Z,0.00
2018-08-11T02:52:48.854Z,0.00
2018-08-11T02:53:48.895Z,0.00
2018-08-11T02:54:48.814Z,0.00
2018-08-11T02:55:48.772Z,0.00
2018-08-11T02:56:48.775Z,0.00
2018-08-11T02:57:48.728Z,0.00
2018-08-11T02:58:48.692Z,0.00
2018-08-11T02:59:48.670Z,0.00
2018-08-11T03:00:48.629Z,0.00
2018-08-11T03:01:48.604Z,0.00
2018-08-11T03:02:48.611Z,0.00
2018-08-11T03:03:48.549Z,0.00
2018-08-11T03:04:48.530Z,0.00
2018-08-11T03:05:48.490Z,0.00
2018-08-11T03:06:48.460Z,0.00
2018-08-11T03:07:48.522Z,0.00
2018-08-11T03:08:48.432Z,0.00
2018-08-11T03:09:48.394Z,0.00
2018-08-11T03:10:48.360Z,0.00
2018-08-11T03:11:48.324Z,0.00
2018-08-11T03:12:48.289Z,0.00
2018-08-11T03:13:48.317Z,0.00
2018-08-11T03:14:48.258Z,0.00
2018-08-11T03:15:48.208Z,0.00
2018-08-11T03:16:48.199Z,0.00
2018-08-11T03:18:10.757Z,0.00
2018-08-11T03:20:04.178Z,0.00
2018-08-11T03:21:04.053Z,0.00
2018-08-11T03:23:07.528Z,0.00
2018-08-11T03:24:07.425Z,0.00
2018-08-11T03:26:11.824Z,0.00
2018-08-11T03:27:11.717Z,0.00
2018-08-11T03:29:14.588Z,0.00
2018-08-11T03:30:14.547Z,0.00
2018-08-11T03:32:33.451Z,0.00
2018-08-11T03:33:52.979Z,0.00
2018-08-11T03:35:38.165Z,0.00
2018-08-11T03:36:38.157Z,0.00
2018-08-11T03:37:38.073Z,0.00
2018-08-11T03:38:38.119Z,0.00
2018-08-11T03:39:37.991Z,0.00
2018-08-11T03:40:37.944Z,0.00
2018-08-11T03:41:37.958Z,0.00
2018-08-11T03:42:37.880Z,0.00
2018-08-11T03:43:37.857Z,0.00
2018-08-11T03:44:37.838Z,0.00
2018-08-11T03:45:37.798Z,0.00
2018-08-11T03:46:37.771Z,0.00
2018-08-11T03:47:37.739Z,0.00
2018-08-11T03:48:37.714Z,0.00
2018-08-11T03:49:37.677Z,0.00
2018-08-11T03:50:37.652Z,0.00
2018-08-11T03:51:37.622Z,0.00
2018-08-11T03:52:37.662Z,0.00
2018-08-11T03:53:37.575Z,0.00
2018-08-11T03:54:40.190Z,0.00
2018-08-11T03:55:37.514Z,0.00
2018-08-11T03:56:37.482Z,0.00
2018-08-11T03:57:37.447Z,0.00
2018-08-11T03:58:37.424Z,0.00
2018-08-11T03:59:37.398Z,0.00
2018-08-11T04:00:37.373Z,0.00
2018-08-11T04:01:37.343Z,0.00
2018-08-11T04:02:37.319Z,0.00
2018-08-11T04:03:37.284Z,0.00
2018-08-11T04:04:39.196Z,0.00
2018-08-11T04:05:37.223Z,0.00
2018-08-11T04:06:37.260Z,5.63
2018-08-11T04:07:37.168Z,5.63
2018-08-11T04:08:37.135Z,5.63
2018-08-11T04:09:37.105Z,5.63
2018-08-11T04:10:37.077Z,5.63
2018-08-11T04:11:37.056Z,5.63
2018-08-11T04:12:37.022Z,5.63
2018-08-11T04:13:37.000Z,5.63
2018-08-11T04:14:36.970Z,5.63
2018-08-11T04:15:36.939Z,5.63
2018-08-11T04:16:36.905Z,11.25
2018-08-11T04:17:36.890Z,11.25
2018-08-11T04:18:36.856Z,11.25
2018-08-11T04:19:36.858Z,11.25
2018-08-11T04:20:36.788Z,16.88
2018-08-11T04:21:36.768Z,16.88
2018-08-11T04:22:36.744Z,16.88
2018-08-11T04:23:36.705Z,22.50
2018-08-11T04:24:36.704Z,22.50
2018-08-11T04:25:36.650Z,28.13
2018-08-11T04:26:36.624Z,28.13
2018-08-11T04:27:36.700Z,33.75
2018-08-11T04:28:36.563Z,33.75
2018-08-11T04:29:36.534Z,39.38
2018-08-11T04:30:36.536Z,39.38
2018-08-11T04:31:36.477Z,45.00
2018-08-11T04:32:36.451Z,45.00
2018-08-11T04:33:36.421Z,45.00
2018-08-11T04:34:36.391Z,45.00
2018-08-11T04:35:36.383Z,45.00
2018-08-11T04:36:36.397Z,50.63
2018-08-11T04:37:36.307Z,50.63
2018-08-11T04:38:36.292Z,50.63
2018-08-11T04:39:36.296Z,50.63
2018-08-11T04:40:36.223Z,50.63
2018-08-11T04:41:36.197Z,50.63
2018-08-11T04:42:36.214Z,56.25
2018-08-11T04:43:36.139Z,56.25
2018-08-11T04:44:36.123Z,50.63
2018-08-11T04:45:36.132Z,50.63
2018-08-11T04:46:36.055Z,50.63
2018-08-11T04:47:36.028Z,56.25
2018-08-11T04:48:35.985Z,61.88
2018-08-11T04:49:35.968Z,67.50
2018-08-11T04:50:35.990Z,73.13
2018-08-11T04:51:35.907Z,78.75
2018-08-11T04:52:35.880Z,84.38
2018-08-11T04:53:35.853Z,84.38
2018-08-11T04:54:35.881Z,84.38
2018-08-11T04:55:35.797Z,90.00
2018-08-11T04:56:35.766Z,95.63
2018-08-11T04:57:35.735Z,95.63
2018-08-11T04:58:35.704Z,95.63
2018-08-11T04:59:35.687Z,101.25
2018-08-11T05:00:35.669Z,101.25
2018-08-11T05:01:37.208Z,101.25
2018-08-11T05:02:35.600Z,106.88
2018-08-11T05:03:35.582Z,118.13
2018-08-11T05:04:35.533Z,112.50
2018-08-11T05:05:35.527Z,112.50
2018-08-11T05:06:35.525Z,112.50
2018-08-11T05:07:35.452Z,112.50
2018-08-11T05:08:37.262Z,118.13
2018-08-11T05:09:35.418Z,118.13
2018-08-11T05:10:35.372Z,118.13
2018-08-11T05:11:35.335Z,123.75
2018-08-11T05:12:35.330Z,123.75
2018-08-11T05:13:35.282Z,123.75
2018-08-11T05:14:35.249Z,123.75
2018-08-11T05:15:35.300Z,129.38
2018-08-11T05:16:35.190Z,129.38
2018-08-11T05:17:35.157Z,129.38
2018-08-11T05:18:35.133Z,129.38
2018-08-11T05:19:35.153Z,129.38
2018-08-11T05:20:35.144Z,129.38
2018-08-11T05:21:35.050Z,123.75
2018-08-11T05:22:35.027Z,129.38
2018-08-11T05:23:35.003Z,140.63
2018-08-11T05:24:34.973Z,135.00
2018-08-11T05:25:34.946Z,135.00
2018-08-11T05:26:34.912Z,140.63
2018-08-11T05:27:34.953Z,140.63
2018-08-11T05:28:34.844Z,146.25
2018-08-11T05:29:34.829Z,140.63
2018-08-11T05:30:34.791Z,140.63
2018-08-11T05:31:34.771Z,151.88
2018-08-11T05:32:34.738Z,163.13
2018-08-11T05:33:34.728Z,146.25
2018-08-11T05:34:34.682Z,146.25
2018-08-11T05:35:34.651Z,157.50
2018-08-11T05:36:34.627Z,174.38
2018-08-11T05:37:34.663Z,163.13
2018-08-11T05:38:34.577Z,163.13
2018-08-11T05:39:34.539Z,168.75
2018-08-11T05:40:34.508Z,168.75
2018-08-11T05:41:34.527Z,163.13
2018-08-11T05:42:34.459Z,185.63
2018-08-11T05:43:34.431Z,180.00
2018-08-11T05:44:34.400Z,180.00
2018-08-11T05:45:34.377Z,174.38
2018-08-11T05:46:34.340Z,174.38
2018-08-11T05:47:34.311Z,185.63
2018-08-11T05:48:34.285Z,191.25
2018-08-11T05:49:34.251Z,174.38
2018-08-11T05:50:34.240Z,180.00
2018-08-11T05:51:34.200Z,202.50
2018-08-11T05:52:34.176Z,191.25
2018-08-11T05:53:34.137Z,185.63
2018-08-11T05:54:34.112Z,174.38
2018-08-11T05:55:34.089Z,196.88
2018-08-11T05:56:34.098Z,213.75
2018-08-11T05:57:34.029Z,202.50
2018-08-11T05:58:34.004Z,191.25
2018-08-11T05:59:33.980Z,230.63
2018-08-11T06:00:33.940Z,191.25
2018-08-11T06:01:33.914Z,185.63
2018-08-11T06:02:33.899Z,208.13
2018-08-11T06:03:33.862Z,196.88
2018-08-11T06:04:33.833Z,213.75
2018-08-11T06:05:33.819Z,196.88
2018-08-11T06:06:33.783Z,236.25
2018-08-11T06:07:33.749Z,213.75
2018-08-11T06:08:33.723Z,208.13
2018-08-11T06:09:33.702Z,196.88
2018-08-11T06:10:33.682Z,191.25
2018-08-11T06:11:33.634Z,196.88
2018-08-11T06:12:33.601Z,230.63
2018-08-11T06:13:33.581Z,292.50
2018-08-11T06:14:33.551Z,281.25
2018-08-11T06:15:33.524Z,236.25
2018-08-11T06:16:36.220Z,208.13
2018-08-11T06:17:33.477Z,219.38
2018-08-11T06:18:33.441Z,225.00
2018-08-11T06:19:33.434Z,253.13
2018-08-11T06:20:33.376Z,247.50
2018-08-11T06:21:33.387Z,258.75
2018-08-11T06:22:33.341Z,258.75
2018-08-11T06:23:33.306Z,241.88
2018-08-11T06:24:33.276Z,258.75
2018-08-11T06:25:33.317Z,258.75
2018-08-11T06:26:33.219Z,236.25
2018-08-11T06:27:33.198Z,241.88
2018-08-11T06:28:33.173Z,264.38
2018-08-11T06:29:33.136Z,309.38
2018-08-11T06:30:34.730Z,264.38
2018-08-11T06:31:33.246Z,258.75
2018-08-11T06:32:33.134Z,247.50
2018-08-11T06:33:33.066Z,230.63
2018-08-11T06:34:33.052Z,191.25
2018-08-11T06:35:33.027Z,219.38
2018-08-11T06:36:33.023Z,225.00
2018-08-11T06:37:32.984Z,225.00
2018-08-11T06:38:32.943Z,225.00
2018-08-11T06:39:32.916Z,225.00
2018-08-11T06:40:32.953Z,225.00
2018-08-11T06:41:32.886Z,225.00
2018-08-11T06:42:32.832Z,191.25
2018-08-11T06:43:32.797Z,225.00
2018-08-11T06:44:32.752Z,225.00
2018-08-11T06:45:32.688Z,225.00
2018-08-11T06:46:32.660Z,225.00
2018-08-11T06:47:32.628Z,230.63
2018-08-11T06:48:32.623Z,247.50
2018-08-11T06:49:32.594Z,236.25
2018-08-11T06:50:32.557Z,230.63
2018-08-11T06:51:32.613Z,208.13
2018-08-11T06:52:32.484Z,230.63
2018-08-11T06:53:32.461Z,213.75
2018-08-11T06:54:32.427Z,230.63
2018-08-11T06:55:32.461Z,230.63
2018-08-11T06:56:32.379Z,230.63
2018-08-11T06:57:32.414Z,236.25
2018-08-11T06:58:32.344Z,241.88
2018-08-11T06:59:32.292Z,213.75
2018-08-11T07:00:32.267Z,213.75
2018-08-11T07:01:32.239Z,264.38
2018-08-11T07:02:32.258Z,241.88
2018-08-11T07:03:32.178Z,196.88
2018-08-11T07:04:32.240Z,196.88
2018-08-11T07:05:32.124Z,225.00
2018-08-11T07:06:32.156Z,247.50
2018-08-11T07:07:33.735Z,247.50
2018-08-11T07:08:33.889Z,247.50
2018-08-11T07:09:32.020Z,202.50
2018-08-11T07:10:31.990Z,258.75
2018-08-11T07:11:32.075Z,253.13
2018-08-11T07:12:31.936Z,253.13
2018-08-11T07:13:33.192Z,258.75
2018-08-11T07:14:31.955Z,258.75
2018-08-11T07:15:31.881Z,258.75
2018-08-11T07:16:31.849Z,275.63
2018-08-11T07:17:31.923Z,281.25
2018-08-11T07:18:31.759Z,286.88
2018-08-11T07:19:31.741Z,281.25
2018-08-11T07:20:32.893Z,253.13
2018-08-11T07:21:31.692Z,230.63
2018-08-11T07:22:31.655Z,208.13
2018-08-11T07:23:31.630Z,258.75
2018-08-11T07:24:31.594Z,264.38
2018-08-11T07:25:31.595Z,286.88
2018-08-11T07:26:31.623Z,270.00
2018-08-11T07:27:31.530Z,247.50
2018-08-11T07:28:31.490Z,264.38
2018-08-11T07:29:31.491Z,253.13
2018-08-11T07:30:33.242Z,258.75
2018-08-11T07:31:31.411Z,241.88
2018-08-11T07:32:31.413Z,275.63
2018-08-11T07:33:31.358Z,270.00
2018-08-11T07:34:32.627Z,264.38
2018-08-11T07:35:31.597Z,270.00
2018-08-11T07:36:31.455Z,281.25
2018-08-11T07:37:31.241Z,281.25
2018-08-11T07:38:31.492Z,281.25
2018-08-11T07:39:31.195Z,275.63
2018-08-11T07:40:49.833Z,275.63
2018-08-11T07:42:49.876Z,270.00
2018-08-11T07:43:47.928Z,264.38
2018-08-11T07:44:49.310Z,292.50
2018-08-11T07:45:47.535Z,286.88
2018-08-11T07:46:49.425Z,303.75
2018-08-11T07:47:47.221Z,298.13
2018-08-11T07:48:47.179Z,298.13
2018-08-11T07:49:46.877Z,331.88
2018-08-11T07:50:46.853Z,343.13
2018-08-11T07:51:46.761Z,298.13
2018-08-11T07:52:48.149Z,303.75
2018-08-11T07:53:46.903Z,303.75
2018-08-11T07:54:47.286Z,309.38
2018-08-11T07:55:46.814Z,303.75
2018-08-11T07:56:46.627Z,326.25
2018-08-11T07:57:46.643Z,303.75
2018-08-11T07:58:46.679Z,382.50
2018-08-11T07:59:46.556Z,421.88
2018-08-11T08:00:46.548Z,393.75
2018-08-11T08:01:46.542Z,354.38
2018-08-11T08:02:46.567Z,298.13
2018-08-11T08:03:46.436Z,292.50
2018-08-11T08:04:46.455Z,343.13
2018-08-11T08:05:46.459Z,298.13
2018-08-11T08:06:46.371Z,354.38
2018-08-11T08:07:46.435Z,331.88
2018-08-11T08:08:46.309Z,365.63
2018-08-11T08:09:46.374Z,438.75
2018-08-11T08:10:46.246Z,433.13
2018-08-11T08:11:46.262Z,354.38
2018-08-11T08:12:46.200Z,326.25
2018-08-11T08:13:46.350Z,371.25
2018-08-11T08:14:46.141Z,326.25
2018-08-11T08:15:46.124Z,320.63
2018-08-11T08:16:46.103Z,371.25
2018-08-11T08:17:46.146Z,399.38
2018-08-11T08:18:46.039Z,371.25
2018-08-11T08:19:46.105Z,365.63
2018-08-11T08:20:46.009Z,354.38
2018-08-11T08:21:45.959Z,360.00
2018-08-11T08:22:45.940Z,365.63
2018-08-11T08:23:45.962Z,315.00
2018-08-11T08:24:45.883Z,393.75
2018-08-11T08:25:45.847Z,433.13
2018-08-11T08:26:45.825Z,495.00
2018-08-11T08:27:45.823Z,495.00
2018-08-11T08:28:45.910Z,500.63
2018-08-11T08:29:45.828Z,478.13
2018-08-11T08:30:45.927Z,466.88
2018-08-11T08:31:45.743Z,500.63
2018-08-11T08:32:45.679Z,500.63
2018-08-11T08:33:45.748Z,472.50
2018-08-11T08:34:45.908Z,500.63
2018-08-11T08:35:45.576Z,506.25
2018-08-11T08:36:45.549Z,495.00
2018-08-11T08:37:45.535Z,478.13
2018-08-11T08:38:45.516Z,489.38
2018-08-11T08:39:45.478Z,528.75
2018-08-11T08:40:45.461Z,483.75
2018-08-11T08:41:45.482Z,455.63
2018-08-11T08:42:45.389Z,489.38
2018-08-11T08:43:45.389Z,478.13
2018-08-11T08:44:45.342Z,405.00
2018-08-11T08:45:45.327Z,416.25
2018-08-11T08:46:45.295Z,388.13
2018-08-11T08:47:45.261Z,388.13
2018-08-11T08:48:45.235Z,410.63
2018-08-11T08:49:45.245Z,360.00
2018-08-11T08:50:45.235Z,348.75
2018-08-11T08:51:45.177Z,427.50
2018-08-11T08:52:45.139Z,444.38
2018-08-11T08:53:45.200Z,461.25
2018-08-11T08:54:45.078Z,506.25
2018-08-11T08:55:45.128Z,551.25
2018-08-11T08:56:45.036Z,590.63
2018-08-11T08:57:45.004Z,579.38
2018-08-11T08:58:44.984Z,590.63
2018-08-11T08:59:46.573Z,551.25
2018-08-11T09:00:44.924Z,618.75
2018-08-11T09:01:44.898Z,585.00
2018-08-11T09:02:44.874Z,601.88
2018-08-11T09:03:45.025Z,534.38
2018-08-11T09:04:44.946Z,506.25
2018-08-11T09:05:45.007Z,511.88
2018-08-11T09:06:44.850Z,461.25
2018-08-11T09:07:44.767Z,461.25
2018-08-11T09:08:44.756Z,433.13
2018-08-11T09:09:44.704Z,483.75
2018-08-11T09:10:44.670Z,438.75
2018-08-11T09:13:50.429Z,472.50
2018-08-11T09:17:49.450Z,573.75
2018-08-11T09:18:51.246Z,545.63
2018-08-11T09:19:50.974Z,568.13
2018-08-11T09:20:49.776Z,646.88
2018-08-11T09:21:49.059Z,607.50
2018-08-11T09:22:49.742Z,641.25
2018-08-11T09:23:54.599Z,658.13
2018-08-11T09:24:50.220Z,635.63
2018-08-11T09:29:11.460Z,517.50
2018-08-11T09:30:12.621Z,528.75
2018-08-11T09:32:14.897Z,613.13
2018-08-11T09:33:17.250Z,590.63
2018-08-11T09:35:19.806Z,495.00
2018-08-11T09:36:20.901Z,444.38
2018-08-11T09:38:25.033Z,562.50
2018-08-11T09:39:25.149Z,495.00
2018-08-11T09:41:29.983Z,596.25
2018-08-11T09:42:28.214Z,607.50
2018-08-11T09:44:36.208Z,523.13
2018-08-11T09:45:36.253Z,399.38
2018-08-11T09:47:44.491Z,393.75
2018-08-11T09:50:05.508Z,410.63
2018-08-11T09:51:07.439Z,405.00
2018-08-11T09:53:23.964Z,433.13
2018-08-11T09:54:13.416Z,517.50
2018-08-11T09:56:21.019Z,528.75
2018-08-11T09:57:21.679Z,433.13
2018-08-11T10:01:03.047Z,511.88
2018-08-11T10:03:54.178Z,646.88
2018-08-11T10:06:28.884Z,708.75
2018-08-11T10:07:28.959Z,686.25
2018-08-11T10:09:36.603Z,523.13
2018-08-11T10:10:37.201Z,630.00
2018-08-11T10:14:43.493Z,511.88
2018-08-11T10:17:07.130Z,511.88
2018-08-11T10:18:07.465Z,433.13
2018-08-11T10:20:49.008Z,556.88
2018-08-11T10:21:49.773Z,562.50
2018-08-11T10:31:22.608Z,731.25
2018-08-11T10:32:20.235Z,748.13
2018-08-11T10:33:20.646Z,708.75
2018-08-11T10:34:21.767Z,675.00
2018-08-11T10:35:21.269Z,675.00
2018-08-11T10:36:20.393Z,753.75
2018-08-11T10:37:19.984Z,691.88
2018-08-11T10:45:08.155Z,461.25
2018-08-11T10:46:09.935Z,478.13
2018-08-11T10:48:08.580Z,551.25
2018-08-11T10:49:09.019Z,590.63
2018-08-11T10:51:13.646Z,646.88
2018-08-11T10:56:10.925Z,663.75
2018-08-11T10:57:10.936Z,624.38
2018-08-11T10:59:16.109Z,708.75
2018-08-11T11:00:14.105Z,753.75
2018-08-11T11:01:14.130Z,725.63
2018-08-11T11:02:20.077Z,680.63
2018-08-11T11:03:16.201Z,506.25
2018-08-11T11:09:22.352Z,613.13
2018-08-11T11:10:23.067Z,601.88
2018-08-11T11:12:29.565Z,652.50
2018-08-11T11:13:28.012Z,669.38
2018-08-11T11:17:07.010Z,810.00
2018-08-11T11:18:06.103Z,832.50
2018-08-11T11:19:05.891Z,838.13
2018-08-11T11:24:00.652Z,697.50
2018-08-11T11:24:41.731Z,725.63
2018-08-11T11:25:42.097Z,776.25
2018-08-11T11:26:41.346Z,804.38
2018-08-11T11:27:41.446Z,810.00
2018-08-11T11:30:24.416Z,793.13
2018-08-11T11:31:24.945Z,810.00
2018-08-11T11:33:26.048Z,911.25
2018-08-11T11:34:27.001Z,748.13
2018-08-11T11:36:30.113Z,675.00
2018-08-11T11:37:28.460Z,708.75
2018-08-11T11:44:11.925Z,871.88
2018-08-11T12:27:00.628Z,849.38
2018-08-11T14:43:51.820Z,945.00
2018-08-11T14:50:03.633Z,2418.75
2018-08-11T14:51:03.742Z,2565.00
2018-08-11T14:52:28.478Z,1333.13
2018-08-11T14:53:05.011Z,1175.63
2018-08-11T14:56:02.836Z,860.63
2018-08-11T14:57:02.601Z,860.63
2018-08-11T14:59:03.973Z,855.00
2018-08-11T15:01:05.522Z,1012.50
2018-08-11T15:02:19.024Z,1254.38
2018-08-11T15:04:18.158Z,3183.75
2018-08-11T15:05:17.167Z,4685.63
2018-08-11T15:06:18.940Z,4618.13
2018-08-11T15:07:17.456Z,4719.38
2018-08-11T15:10:27.159Z,4522.50
2018-08-11T15:11:04.670Z,3470.63
2018-08-11T15:12:04.337Z,939.38
2018-08-11T15:13:04.204Z,765.00
2018-08-11T15:14:03.748Z,748.13
2018-08-11T15:18:44.216Z,849.38
2018-08-11T15:21:17.089Z,973.13
2018-08-11T15:22:17.359Z,5073.75
2018-08-11T15:23:16.977Z,5321.25
2018-08-11T15:24:17.436Z,5265.00
2018-08-11T15:25:17.958Z,5371.88
2018-08-11T15:26:18.066Z,4747.50
2018-08-11T15:27:36.555Z,5000.63
2018-08-11T15:28:17.632Z,5045.63
2018-08-11T15:29:17.477Z,5270.63
2018-08-11T15:32:14.274Z,5113.13
2018-08-11T15:33:10.784Z,5073.75
2018-08-11T15:34:10.582Z,5231.25
2018-08-11T15:37:06.702Z,5163.75
2018-08-11T15:37:53.937Z,5366.25
2018-08-11T15:38:58.728Z,5056.88
2018-08-11T15:39:53.208Z,4798.13
2018-08-11T15:40:52.757Z,4786.88
2018-08-11T15:41:52.750Z,4888.13
2018-08-11T15:42:52.888Z,1023.75
2018-08-11T15:43:53.337Z,1192.50
2018-08-11T15:44:52.642Z,4567.50
2018-08-11T15:45:52.791Z,4753.13
2018-08-11T15:46:52.767Z,4657.50
2018-08-11T15:51:24.376Z,4066.88
2018-08-11T15:52:43.411Z,4561.88
2018-08-11T15:54:24.735Z,4826.25
2018-08-11T15:55:25.677Z,4578.75
2018-08-11T15:56:24.386Z,4230.00
2018-08-11T15:57:23.747Z,4314.38
2018-08-11T15:58:38.719Z,4584.38
2018-08-11T16:04:34.387Z,1248.75
2018-08-11T16:05:49.510Z,1755.00
2018-08-11T16:07:57.026Z,3189.38
2018-08-11T16:09:14.790Z,1563.75
2018-08-11T16:11:26.964Z,1513.13
2018-08-11T16:12:38.182Z,2244.38
2018-08-11T16:13:31.544Z,2188.13
2018-08-11T16:14:25.211Z,1659.38
2018-08-11T16:15:44.817Z,922.50
2018-08-11T16:18:17.497Z,905.63
2018-08-11T16:19:11.616Z,860.63
2018-08-11T16:21:52.835Z,826.88
2018-08-11T16:23:11.480Z,798.75
2018-08-11T16:25:00.530Z,742.50
2018-08-11T16:26:17.320Z,714.38
2018-08-11T16:27:54.600Z,703.13
2018-08-11T16:28:54.048Z,697.50
2018-08-11T16:33:01.392Z,708.75
2018-08-11T16:33:40.576Z,714.38
2018-08-11T16:35:58.269Z,720.00
2018-08-11T16:37:09.269Z,703.13
2018-08-11T16:39:06.302Z,680.63
2018-08-11T16:39:52.669Z,691.88
2018-08-11T16:42:05.429Z,691.88
2018-08-11T16:42:55.512Z,708.75
2018-08-11T16:43:54.585Z,731.25
2018-08-11T16:44:54.108Z,731.25
2018-08-11T16:45:54.065Z,736.88
2018-08-11T16:46:53.712Z,703.13
2018-08-11T16:49:43.247Z,669.38
2018-08-11T16:50:38.569Z,635.63
2018-08-11T16:51:38.808Z,601.88
2018-08-11T16:54:12.237Z,607.50
2018-08-11T16:55:22.440Z,596.25
2018-08-11T16:57:29.476Z,568.13
2018-08-11T16:58:38.695Z,562.50
2018-08-11T17:00:27.019Z,534.38
2018-08-11T17:01:26.335Z,534.38
2018-08-11T17:04:34.888Z,489.38
2018-08-11T17:07:06.373Z,540.00
2018-08-11T17:10:54.205Z,483.75
2018-08-11T17:12:50.861Z,517.50
2018-08-11T17:17:12.505Z,596.25
2018-08-11T17:18:13.244Z,573.75
2018-08-11T17:20:10.705Z,444.38
2018-08-11T17:21:10.631Z,433.13
2018-08-11T17:23:16.952Z,399.38
2018-08-11T17:24:17.412Z,388.13
2018-08-11T17:25:18.512Z,376.88
2018-08-11T17:26:16.502Z,376.88
2018-08-11T17:27:17.161Z,365.63
2018-08-11T17:28:17.013Z,343.13
2018-08-11T17:29:16.048Z,337.50
2018-08-11T17:30:15.989Z,331.88
2018-08-11T17:31:15.983Z,326.25
2018-08-11T17:32:15.986Z,326.25
2018-08-11T17:33:16.180Z,320.63
2018-08-11T17:34:15.888Z,326.25
2018-08-11T17:35:15.938Z,337.50
2018-08-11T17:36:15.689Z,343.13
2018-08-11T17:38:54.221Z,365.63
2018-08-11T17:39:56.761Z,331.88
2018-08-11T17:40:55.681Z,320.63
2018-08-11T17:41:54.031Z,337.50
2018-08-11T17:42:53.882Z,320.63
2018-08-11T17:43:53.803Z,320.63
2018-08-11T17:45:10.899Z,326.25
2018-08-11T17:46:55.537Z,315.00
2018-08-11T17:47:55.335Z,303.75
2018-08-11T17:49:56.358Z,281.25
2018-08-11T17:51:15.190Z,275.63
2018-08-11T17:53:01.687Z,264.38
2018-08-11T17:54:01.753Z,258.75
2018-08-11T17:55:01.492Z,253.13
2018-08-11T17:56:02.461Z,247.50
2018-08-11T17:58:44.654Z,241.88
2018-08-11T17:59:45.182Z,236.25
2018-08-11T18:00:43.635Z,230.63
2018-08-11T18:01:43.653Z,225.00
2018-08-11T18:02:44.034Z,213.75
2018-08-11T18:04:02.517Z,202.50
2018-08-11T18:06:07.505Z,191.25
2018-08-11T18:06:46.540Z,191.25
2018-08-11T18:08:42.183Z,185.63
2018-08-11T18:09:40.883Z,185.63
2018-08-11T18:11:34.316Z,185.63
2018-08-11T18:12:34.683Z,185.63
2018-08-11T18:14:34.087Z,185.63
2018-08-11T18:15:34.764Z,185.63
2018-08-11T18:17:55.343Z,174.38
2018-08-11T18:20:06.459Z,168.75
2018-08-11T18:21:06.012Z,163.13
2018-08-11T18:23:35.625Z,151.88
2018-08-11T18:24:20.490Z,146.25